sensor_id;sensor_type;location;lat;lon;timestamp;P1;durP1;ratioP1;P2;durP2;ratioP2
45728;SDS011;31439;53.512;10.206;2023-03-07T00:04:54;19.52;;;12.27;;
45728;SDS011;31439;53.512;10.206;2023-03-07T00:13:42;21.83;;;13.60;;
45728;SDS011;31439;53.512;10.206;2023-03-07T00:16:18;24.67;;;13.65;;
45728;SDS011;31439;53.512;10.206;2023-03-07T00:22:54;26.77;;;15.77;;
45728;SDS011;31439;53.512;10.206;2023-03-07T00:30:36;27.95;;;15.88;;
45728;SDS011;31439;53.512;10.206;2023-03-07T00:36:53;32.47;;;17.05;;
45728;SDS011;31439;53.512;10.206;2023-03-07T00:42:32;30.50;;;17.63;;
45728;SDS011;31439;53.512;10.206;2023-03-07T00:44:57;29.17;;;17.17;;
45728;SDS011;31439;53.512;10.206;2023-03-07T00:47:23;31.35;;;17.55;;
45728;SDS011;31439;53.512;10.206;2023-03-07T00:49:49;32.55;;;18.73;;
45728;SDS011;31439;53.512;10.206;2023-03-07T00:52:14;33.03;;;19.42;;
45728;SDS011;31439;53.512;10.206;2023-03-07T00:54:40;33.28;;;19.63;;
45728;SDS011;31439;53.512;10.206;2023-03-07T00:57:05;34.33;;;20.17;;
45728;SDS011;31439;53.512;10.206;2023-03-07T00:59:31;34.90;;;20.05;;
45728;SDS011;31439;53.512;10.206;2023-03-07T01:01:57;32.40;;;19.65;;
45728;SDS011;31439;53.512;10.206;2023-03-07T01:04:22;36.05;;;20.10;;
45728;SDS011;31439;53.512;10.206;2023-03-07T01:06:48;35.90;;;20.42;;
45728;SDS011;31439;53.512;10.206;2023-03-07T01:09:14;36.13;;;20.88;;
45728;SDS011;31439;53.512;10.206;2023-03-07T01:11:40;37.05;;;21.60;;
45728;SDS011;31439;53.512;10.206;2023-03-07T01:14:05;36.72;;;20.77;;
45728;SDS011;31439;53.512;10.206;2023-03-07T01:16:34;36.08;;;21.55;;
45728;SDS011;31439;53.512;10.206;2023-03-07T01:19:02;38.00;;;21.40;;
45728;SDS011;31439;53.512;10.206;2023-03-07T01:21:31;36.28;;;22.42;;
45728;SDS011;31439;53.512;10.206;2023-03-07T01:24:01;36.22;;;21.50;;
45728;SDS011;31439;53.512;10.206;2023-03-07T01:26:29;40.60;;;22.80;;
45728;SDS011;31439;53.512;10.206;2023-03-07T01:28:56;37.40;;;22.98;;
45728;SDS011;31439;53.512;10.206;2023-03-07T01:31:24;38.47;;;22.42;;
45728;SDS011;31439;53.512;10.206;2023-03-07T01:33:51;39.50;;;22.73;;
45728;SDS011;31439;53.512;10.206;2023-03-07T01:38:54;39.15;;;23.25;;
45728;SDS011;31439;53.512;10.206;2023-03-07T01:41:31;39.88;;;22.42;;
45728;SDS011;31439;53.512;10.206;2023-03-07T01:43:58;35.80;;;21.52;;
45728;SDS011;31439;53.512;10.206;2023-03-07T01:49:01;38.60;;;23.13;;
45728;SDS011;31439;53.512;10.206;2023-03-07T01:51:31;38.55;;;22.83;;
45728;SDS011;31439;53.512;10.206;2023-03-07T01:53:58;37.65;;;21.92;;
45728;SDS011;31439;53.512;10.206;2023-03-07T01:56:25;37.67;;;23.00;;
45728;SDS011;31439;53.512;10.206;2023-03-07T01:58:51;35.25;;;21.27;;
45728;SDS011;31439;53.512;10.206;2023-03-07T02:01:18;35.92;;;21.33;;
45728;SDS011;31439;53.512;10.206;2023-03-07T02:03:49;37.97;;;22.35;;
45728;SDS011;31439;53.512;10.206;2023-03-07T02:06:32;36.08;;;22.02;;
45728;SDS011;31439;53.512;10.206;2023-03-07T02:09:01;38.00;;;23.40;;
45728;SDS011;31439;53.512;10.206;2023-03-07T02:11:27;36.33;;;21.70;;
45728;SDS011;31439;53.512;10.206;2023-03-07T02:13:54;35.25;;;22.25;;
45728;SDS011;31439;53.512;10.206;2023-03-07T02:16:20;36.80;;;21.85;;
45728;SDS011;31439;53.512;10.206;2023-03-07T02:18:46;32.15;;;20.67;;
45728;SDS011;31439;53.512;10.206;2023-03-07T02:26:44;37.15;;;21.15;;
45728;SDS011;31439;53.512;10.206;2023-03-07T02:29:11;34.25;;;21.02;;
45728;SDS011;31439;53.512;10.206;2023-03-07T02:31:38;35.35;;;21.63;;
45728;SDS011;31439;53.512;10.206;2023-03-07T02:34:16;33.45;;;20.77;;
45728;SDS011;31439;53.512;10.206;2023-03-07T02:36:42;33.67;;;21.02;;
45728;SDS011;31439;53.512;10.206;2023-03-07T02:39:09;34.90;;;20.58;;
45728;SDS011;31439;53.512;10.206;2023-03-07T02:41:34;34.40;;;21.05;;
45728;SDS011;31439;53.512;10.206;2023-03-07T02:44:03;32.70;;;21.05;;
45728;SDS011;31439;53.512;10.206;2023-03-07T02:46:28;34.45;;;20.23;;
45728;SDS011;31439;53.512;10.206;2023-03-07T02:48:54;34.42;;;19.83;;
45728;SDS011;31439;53.512;10.206;2023-03-07T02:51:19;29.85;;;19.63;;
45728;SDS011;31439;53.512;10.206;2023-03-07T02:53:45;32.92;;;20.13;;
45728;SDS011;31439;53.512;10.206;2023-03-07T02:56:11;34.30;;;19.83;;
45728;SDS011;31439;53.512;10.206;2023-03-07T02:58:37;33.85;;;20.90;;
45728;SDS011;31439;53.512;10.206;2023-03-07T03:01:02;31.83;;;21.00;;
45728;SDS011;31439;53.512;10.206;2023-03-07T03:03:28;32.95;;;20.67;;
45728;SDS011;31439;53.512;10.206;2023-03-07T03:05:53;32.85;;;20.02;;
45728;SDS011;31439;53.512;10.206;2023-03-07T03:08:19;31.75;;;20.33;;
45728;SDS011;31439;53.512;10.206;2023-03-07T03:10:45;32.25;;;19.52;;
45728;SDS011;31439;53.512;10.206;2023-03-07T03:13:15;31.60;;;19.52;;
45728;SDS011;31439;53.512;10.206;2023-03-07T03:15:41;32.08;;;19.58;;
45728;SDS011;31439;53.512;10.206;2023-03-07T03:18:07;31.30;;;19.92;;
45728;SDS011;31439;53.512;10.206;2023-03-07T03:20:32;31.80;;;19.20;;
45728;SDS011;31439;53.512;10.206;2023-03-07T03:22:58;33.75;;;20.35;;
45728;SDS011;31439;53.512;10.206;2023-03-07T03:25:23;32.35;;;19.45;;
45728;SDS011;31439;53.512;10.206;2023-03-07T03:27:51;31.45;;;20.35;;
45728;SDS011;31439;53.512;10.206;2023-03-07T03:30:16;33.33;;;20.25;;
45728;SDS011;31439;53.512;10.206;2023-03-07T03:32:42;33.20;;;20.08;;
45728;SDS011;31439;53.512;10.206;2023-03-07T03:35:08;31.88;;;20.00;;
45728;SDS011;31439;53.512;10.206;2023-03-07T03:37:34;33.53;;;19.73;;
45728;SDS011;31439;53.512;10.206;2023-03-07T03:39:59;31.80;;;19.90;;
45728;SDS011;31439;53.512;10.206;2023-03-07T03:42:25;31.85;;;20.15;;
45728;SDS011;31439;53.512;10.206;2023-03-07T03:44:51;31.85;;;19.58;;
45728;SDS011;31439;53.512;10.206;2023-03-07T03:47:17;33.95;;;20.08;;
45728;SDS011;31439;53.512;10.206;2023-03-07T03:49:42;32.67;;;19.40;;
45728;SDS011;31439;53.512;10.206;2023-03-07T03:52:08;29.88;;;18.45;;
45728;SDS011;31439;53.512;10.206;2023-03-07T03:54:34;28.40;;;17.40;;
45728;SDS011;31439;53.512;10.206;2023-03-07T03:57:00;32.30;;;17.77;;
45728;SDS011;31439;53.512;10.206;2023-03-07T03:59:26;29.63;;;17.92;;
45728;SDS011;31439;53.512;10.206;2023-03-07T04:01:52;26.52;;;17.08;;
45728;SDS011;31439;53.512;10.206;2023-03-07T04:04:19;28.90;;;16.77;;
45728;SDS011;31439;53.512;10.206;2023-03-07T04:06:45;29.40;;;17.08;;
45728;SDS011;31439;53.512;10.206;2023-03-07T04:09:11;26.67;;;15.85;;
45728;SDS011;31439;53.512;10.206;2023-03-07T04:11:36;23.95;;;14.85;;
45728;SDS011;31439;53.512;10.206;2023-03-07T04:14:02;24.40;;;15.25;;
45728;SDS011;31439;53.512;10.206;2023-03-07T04:16:28;26.83;;;15.75;;
45728;SDS011;31439;53.512;10.206;2023-03-07T04:18:53;26.38;;;14.73;;
45728;SDS011;31439;53.512;10.206;2023-03-07T04:21:19;24.98;;;14.93;;
45728;SDS011;31439;53.512;10.206;2023-03-07T04:23:46;25.75;;;14.95;;
45728;SDS011;31439;53.512;10.206;2023-03-07T04:26:13;24.00;;;14.35;;
45728;SDS011;31439;53.512;10.206;2023-03-07T04:28:40;26.25;;;14.75;;
45728;SDS011;31439;53.512;10.206;2023-03-07T04:31:14;27.33;;;13.30;;
45728;SDS011;31439;53.512;10.206;2023-03-07T04:33:42;23.98;;;12.95;;
45728;SDS011;31439;53.512;10.206;2023-03-07T04:36:08;23.00;;;13.27;;
45728;SDS011;31439;53.512;10.206;2023-03-07T04:38:35;19.23;;;11.98;;
45728;SDS011;31439;53.512;10.206;2023-03-07T04:41:03;21.92;;;12.20;;
45728;SDS011;31439;53.512;10.206;2023-03-07T04:43:29;20.63;;;12.43;;
45728;SDS011;31439;53.512;10.206;2023-03-07T04:45:55;24.35;;;13.18;;
45728;SDS011;31439;53.512;10.206;2023-03-07T04:48:20;20.33;;;12.35;;
45728;SDS011;31439;53.512;10.206;2023-03-07T04:50:50;22.08;;;12.57;;
45728;SDS011;31439;53.512;10.206;2023-03-07T04:53:16;19.00;;;12.13;;
45728;SDS011;31439;53.512;10.206;2023-03-07T04:55:43;24.33;;;12.57;;
45728;SDS011;31439;53.512;10.206;2023-03-07T04:58:09;20.42;;;12.00;;
45728;SDS011;31439;53.512;10.206;2023-03-07T05:00:40;19.20;;;11.02;;
45728;SDS011;31439;53.512;10.206;2023-03-07T05:03:06;22.02;;;10.82;;
45728;SDS011;31439;53.512;10.206;2023-03-07T05:05:33;18.52;;;9.40;;
45728;SDS011;31439;53.512;10.206;2023-03-07T05:07:59;16.20;;;8.93;;
45728;SDS011;31439;53.512;10.206;2023-03-07T05:10:24;14.15;;;7.25;;
45728;SDS011;31439;53.512;10.206;2023-03-07T05:12:50;17.10;;;7.88;;
45728;SDS011;31439;53.512;10.206;2023-03-07T05:15:16;10.82;;;6.50;;
45728;SDS011;31439;53.512;10.206;2023-03-07T05:17:41;17.90;;;6.47;;
45728;SDS011;31439;53.512;10.206;2023-03-07T05:20:07;14.15;;;6.30;;
45728;SDS011;31439;53.512;10.206;2023-03-07T05:22:34;11.32;;;5.55;;
45728;SDS011;31439;53.512;10.206;2023-03-07T05:25:00;11.15;;;5.03;;
45728;SDS011;31439;53.512;10.206;2023-03-07T05:27:26;12.93;;;5.03;;
45728;SDS011;31439;53.512;10.206;2023-03-07T05:29:51;12.65;;;5.85;;
45728;SDS011;31439;53.512;10.206;2023-03-07T05:32:17;11.40;;;4.68;;
45728;SDS011;31439;53.512;10.206;2023-03-07T05:34:43;14.15;;;4.53;;
45728;SDS011;31439;53.512;10.206;2023-03-07T05:37:10;9.85;;;4.30;;
45728;SDS011;31439;53.512;10.206;2023-03-07T05:39:36;11.73;;;3.75;;
45728;SDS011;31439;53.512;10.206;2023-03-07T05:42:02;8.80;;;3.50;;
45728;SDS011;31439;53.512;10.206;2023-03-07T05:44:28;9.65;;;3.83;;
45728;SDS011;31439;53.512;10.206;2023-03-07T05:46:54;8.23;;;2.97;;
45728;SDS011;31439;53.512;10.206;2023-03-07T05:49:20;11.65;;;3.65;;
45728;SDS011;31439;53.512;10.206;2023-03-07T05:51:46;9.90;;;2.80;;
45728;SDS011;31439;53.512;10.206;2023-03-07T05:54:11;8.18;;;3.05;;
45728;SDS011;31439;53.512;10.206;2023-03-07T05:56:37;8.00;;;2.72;;
45728;SDS011;31439;53.512;10.206;2023-03-07T05:59:02;7.80;;;2.85;;
45728;SDS011;31439;53.512;10.206;2023-03-07T06:01:31;5.75;;;2.42;;
45728;SDS011;31439;53.512;10.206;2023-03-07T06:03:57;12.50;;;2.90;;
45728;SDS011;31439;53.512;10.206;2023-03-07T06:06:23;8.32;;;2.50;;
45728;SDS011;31439;53.512;10.206;2023-03-07T06:08:48;7.22;;;2.40;;
45728;SDS011;31439;53.512;10.206;2023-03-07T06:11:14;7.10;;;2.00;;
45728;SDS011;31439;53.512;10.206;2023-03-07T06:13:40;6.97;;;2.05;;
45728;SDS011;31439;53.512;10.206;2023-03-07T06:16:05;5.28;;;2.17;;
45728;SDS011;31439;53.512;10.206;2023-03-07T06:18:31;7.20;;;2.30;;
45728;SDS011;31439;53.512;10.206;2023-03-07T06:21:00;8.75;;;2.55;;
45728;SDS011;31439;53.512;10.206;2023-03-07T06:23:28;5.15;;;1.70;;
45728;SDS011;31439;53.512;10.206;2023-03-07T06:25:56;6.90;;;1.92;;
45728;SDS011;31439;53.512;10.206;2023-03-07T06:28:22;8.27;;;1.88;;
45728;SDS011;31439;53.512;10.206;2023-03-07T06:30:48;9.40;;;2.20;;
45728;SDS011;31439;53.512;10.206;2023-03-07T06:33:13;6.75;;;1.75;;
45728;SDS011;31439;53.512;10.206;2023-03-07T06:35:39;8.13;;;2.47;;
45728;SDS011;31439;53.512;10.206;2023-03-07T06:38:07;6.45;;;1.75;;
45728;SDS011;31439;53.512;10.206;2023-03-07T06:40:34;11.45;;;1.85;;
45728;SDS011;31439;53.512;10.206;2023-03-07T06:43:00;7.13;;;1.70;;
45728;SDS011;31439;53.512;10.206;2023-03-07T06:45:26;9.65;;;1.92;;
45728;SDS011;31439;53.512;10.206;2023-03-07T06:47:51;7.75;;;1.95;;
45728;SDS011;31439;53.512;10.206;2023-03-07T06:50:17;7.85;;;1.65;;
45728;SDS011;31439;53.512;10.206;2023-03-07T06:52:43;12.35;;;1.92;;
45728;SDS011;31439;53.512;10.206;2023-03-07T06:55:09;10.02;;;2.03;;
45728;SDS011;31439;53.512;10.206;2023-03-07T06:57:34;7.93;;;2.00;;
45728;SDS011;31439;53.512;10.206;2023-03-07T07:00:01;10.50;;;1.55;;
45728;SDS011;31439;53.512;10.206;2023-03-07T07:02:29;12.05;;;1.90;;
45728;SDS011;31439;53.512;10.206;2023-03-07T07:04:54;8.48;;;1.80;;
45728;SDS011;31439;53.512;10.206;2023-03-07T07:07:21;10.18;;;1.75;;
45728;SDS011;31439;53.512;10.206;2023-03-07T07:09:47;6.53;;;1.38;;
45728;SDS011;31439;53.512;10.206;2023-03-07T07:12:13;8.23;;;1.63;;
45728;SDS011;31439;53.512;10.206;2023-03-07T07:14:39;8.00;;;1.40;;
45728;SDS011;31439;53.512;10.206;2023-03-07T07:17:05;9.80;;;1.50;;
45728;SDS011;31439;53.512;10.206;2023-03-07T07:19:30;5.72;;;1.25;;
45728;SDS011;31439;53.512;10.206;2023-03-07T07:21:56;8.00;;;1.40;;
45728;SDS011;31439;53.512;10.206;2023-03-07T07:24:22;6.88;;;1.45;;
45728;SDS011;31439;53.512;10.206;2023-03-07T07:26:48;5.95;;;1.52;;
45728;SDS011;31439;53.512;10.206;2023-03-07T07:29:13;11.60;;;2.13;;
45728;SDS011;31439;53.512;10.206;2023-03-07T07:31:40;5.18;;;1.42;;
45728;SDS011;31439;53.512;10.206;2023-03-07T07:34:05;7.97;;;2.00;;
45728;SDS011;31439;53.512;10.206;2023-03-07T07:36:31;8.27;;;1.70;;
45728;SDS011;31439;53.512;10.206;2023-03-07T07:38:58;5.97;;;1.42;;
45728;SDS011;31439;53.512;10.206;2023-03-07T07:41:34;5.40;;;1.20;;
45728;SDS011;31439;53.512;10.206;2023-03-07T07:44:00;6.70;;;1.48;;
45728;SDS011;31439;53.512;10.206;2023-03-07T07:46:25;8.02;;;1.45;;
45728;SDS011;31439;53.512;10.206;2023-03-07T07:48:54;7.07;;;1.55;;
45728;SDS011;31439;53.512;10.206;2023-03-07T07:51:20;6.82;;;1.70;;
45728;SDS011;31439;53.512;10.206;2023-03-07T07:53:46;7.07;;;1.52;;
45728;SDS011;31439;53.512;10.206;2023-03-07T07:56:12;11.20;;;1.85;;
45728;SDS011;31439;53.512;10.206;2023-03-07T07:58:38;8.68;;;1.70;;
45728;SDS011;31439;53.512;10.206;2023-03-07T08:01:23;8.00;;;1.40;;
45728;SDS011;31439;53.512;10.206;2023-03-07T08:03:49;8.02;;;1.52;;
45728;SDS011;31439;53.512;10.206;2023-03-07T08:06:19;11.65;;;2.10;;
45728;SDS011;31439;53.512;10.206;2023-03-07T08:08:46;7.65;;;1.50;;
45728;SDS011;31439;53.512;10.206;2023-03-07T08:11:13;7.30;;;1.60;;
45728;SDS011;31439;53.512;10.206;2023-03-07T08:13:39;8.18;;;1.50;;
45728;SDS011;31439;53.512;10.206;2023-03-07T08:16:11;8.88;;;1.83;;
45728;SDS011;31439;53.512;10.206;2023-03-07T08:18:41;7.68;;;1.67;;
45728;SDS011;31439;53.512;10.206;2023-03-07T08:21:11;8.90;;;1.75;;
45728;SDS011;31439;53.512;10.206;2023-03-07T08:23:37;7.72;;;1.48;;
45728;SDS011;31439;53.512;10.206;2023-03-07T08:26:03;8.90;;;1.95;;
45728;SDS011;31439;53.512;10.206;2023-03-07T08:28:30;8.85;;;1.67;;
45728;SDS011;31439;53.512;10.206;2023-03-07T08:30:56;8.95;;;1.55;;
45728;SDS011;31439;53.512;10.206;2023-03-07T08:33:21;8.68;;;2.03;;
45728;SDS011;31439;53.512;10.206;2023-03-07T08:35:47;14.43;;;2.08;;
45728;SDS011;31439;53.512;10.206;2023-03-07T08:38:13;9.15;;;1.65;;
45728;SDS011;31439;53.512;10.206;2023-03-07T08:40:39;10.07;;;1.80;;
45728;SDS011;31439;53.512;10.206;2023-03-07T08:43:04;8.38;;;1.85;;
45728;SDS011;31439;53.512;10.206;2023-03-07T08:45:30;10.20;;;1.73;;
45728;SDS011;31439;53.512;10.206;2023-03-07T08:47:56;7.70;;;1.67;;
45728;SDS011;31439;53.512;10.206;2023-03-07T08:50:23;8.07;;;1.60;;
45728;SDS011;31439;53.512;10.206;2023-03-07T08:52:50;6.28;;;1.23;;
45728;SDS011;31439;53.512;10.206;2023-03-07T08:55:16;14.30;;;1.98;;
45728;SDS011;31439;53.512;10.206;2023-03-07T08:57:42;7.15;;;1.40;;
45728;SDS011;31439;53.512;10.206;2023-03-07T09:00:09;8.20;;;1.80;;
45728;SDS011;31439;53.512;10.206;2023-03-07T09:02:36;10.55;;;1.88;;
45728;SDS011;31439;53.512;10.206;2023-03-07T09:05:02;6.15;;;1.50;;
45728;SDS011;31439;53.512;10.206;2023-03-07T09:07:28;11.95;;;2.13;;
45728;SDS011;31439;53.512;10.206;2023-03-07T09:09:54;8.52;;;2.13;;
45728;SDS011;31439;53.512;10.206;2023-03-07T09:12:19;6.50;;;1.60;;
45728;SDS011;31439;53.512;10.206;2023-03-07T09:14:45;9.10;;;1.85;;
45728;SDS011;31439;53.512;10.206;2023-03-07T09:17:11;4.10;;;1.30;;
45728;SDS011;31439;53.512;10.206;2023-03-07T09:19:36;8.70;;;1.90;;
45728;SDS011;31439;53.512;10.206;2023-03-07T09:22:02;11.07;;;2.05;;
45728;SDS011;31439;53.512;10.206;2023-03-07T09:24:28;7.55;;;1.50;;
45728;SDS011;31439;53.512;10.206;2023-03-07T09:26:54;9.00;;;1.80;;
45728;SDS011;31439;53.512;10.206;2023-03-07T09:29:20;10.05;;;2.20;;
45728;SDS011;31439;53.512;10.206;2023-03-07T09:31:46;9.45;;;1.80;;
45728;SDS011;31439;53.512;10.206;2023-03-07T09:34:12;17.17;;;2.45;;
45728;SDS011;31439;53.512;10.206;2023-03-07T09:36:37;7.30;;;1.75;;
45728;SDS011;31439;53.512;10.206;2023-03-07T09:39:03;6.97;;;1.85;;
45728;SDS011;31439;53.512;10.206;2023-03-07T09:44:14;8.63;;;1.90;;
45728;SDS011;31439;53.512;10.206;2023-03-07T09:49:53;8.55;;;2.30;;
45728;SDS011;31439;53.512;10.206;2023-03-07T09:52:23;8.68;;;2.03;;
45728;SDS011;31439;53.512;10.206;2023-03-07T09:54:55;8.13;;;1.40;;
45728;SDS011;31439;53.512;10.206;2023-03-07T09:57:26;13.25;;;2.15;;
45728;SDS011;31439;53.512;10.206;2023-03-07T09:59:56;11.27;;;1.98;;
45728;SDS011;31439;53.512;10.206;2023-03-07T10:02:26;10.38;;;2.15;;
45728;SDS011;31439;53.512;10.206;2023-03-07T10:07:42;12.82;;;2.25;;
45728;SDS011;31439;53.512;10.206;2023-03-07T10:10:13;7.80;;;1.73;;
45728;SDS011;31439;53.512;10.206;2023-03-07T10:15:43;8.93;;;1.90;;
45728;SDS011;31439;53.512;10.206;2023-03-07T10:20:44;10.93;;;1.83;;
45728;SDS011;31439;53.512;10.206;2023-03-07T10:26:11;11.15;;;2.10;;
45728;SDS011;31439;53.512;10.206;2023-03-07T10:28:47;7.85;;;1.30;;
45728;SDS011;31439;53.512;10.206;2023-03-07T10:31:14;10.63;;;2.00;;
45728;SDS011;31439;53.512;10.206;2023-03-07T10:36:52;8.60;;;1.50;;
45728;SDS011;31439;53.512;10.206;2023-03-07T10:42:18;7.32;;;1.52;;
45728;SDS011;31439;53.512;10.206;2023-03-07T10:44:46;11.18;;;1.80;;
45728;SDS011;31439;53.512;10.206;2023-03-07T10:47:17;9.55;;;1.95;;
45728;SDS011;31439;53.512;10.206;2023-03-07T10:49:46;6.65;;;1.75;;
45728;SDS011;31439;53.512;10.206;2023-03-07T10:54:50;5.75;;;1.40;;
45728;SDS011;31439;53.512;10.206;2023-03-07T10:57:16;7.60;;;1.77;;
45728;SDS011;31439;53.512;10.206;2023-03-07T10:59:46;6.28;;;1.50;;
45728;SDS011;31439;53.512;10.206;2023-03-07T11:02:26;6.15;;;1.42;;
45728;SDS011;31439;53.512;10.206;2023-03-07T11:04:55;7.75;;;1.30;;
45728;SDS011;31439;53.512;10.206;2023-03-07T11:07:31;7.35;;;1.33;;
45728;SDS011;31439;53.512;10.206;2023-03-07T11:10:24;4.68;;;1.10;;
45728;SDS011;31439;53.512;10.206;2023-03-07T11:12:49;6.22;;;1.35;;
45728;SDS011;31439;53.512;10.206;2023-03-07T11:15:19;11.27;;;1.88;;
45728;SDS011;31439;53.512;10.206;2023-03-07T11:17:48;8.55;;;1.25;;
45728;SDS011;31439;53.512;10.206;2023-03-07T11:20:26;7.55;;;1.63;;
45728;SDS011;31439;53.512;10.206;2023-03-07T11:23:26;4.93;;;1.40;;
45728;SDS011;31439;53.512;10.206;2023-03-07T11:25:55;6.57;;;1.87;;
45728;SDS011;31439;53.512;10.206;2023-03-07T11:28:37;7.35;;;1.90;;
45728;SDS011;31439;53.512;10.206;2023-03-07T11:36:24;7.90;;;2.00;;
45728;SDS011;31439;53.512;10.206;2023-03-07T11:42:03;12.38;;;1.70;;
45728;SDS011;31439;53.512;10.206;2023-03-07T11:48:10;5.65;;;1.60;;
45728;SDS011;31439;53.512;10.206;2023-03-07T11:50:39;9.38;;;2.10;;
45728;SDS011;31439;53.512;10.206;2023-03-07T11:53:18;10.88;;;1.98;;
45728;SDS011;31439;53.512;10.206;2023-03-07T12:01:15;9.43;;;1.80;;
45728;SDS011;31439;53.512;10.206;2023-03-07T12:14:51;6.85;;;2.03;;
45728;SDS011;31439;53.512;10.206;2023-03-07T12:22:54;14.48;;;2.35;;
45728;SDS011;31439;53.512;10.206;2023-03-07T12:25:44;13.35;;;2.28;;
45728;SDS011;31439;53.512;10.206;2023-03-07T12:28:32;11.77;;;1.70;;
45728;SDS011;31439;53.512;10.206;2023-03-07T12:31:13;11.43;;;2.22;;
45728;SDS011;31439;53.512;10.206;2023-03-07T12:33:50;10.40;;;1.65;;
45728;SDS011;31439;53.512;10.206;2023-03-07T12:36:31;6.43;;;1.55;;
45728;SDS011;31439;53.512;10.206;2023-03-07T12:39:14;8.50;;;1.90;;
45728;SDS011;31439;53.512;10.206;2023-03-07T12:44:52;6.72;;;1.58;;
45728;SDS011;31439;53.512;10.206;2023-03-07T12:51:18;6.05;;;1.58;;
45728;SDS011;31439;53.512;10.206;2023-03-07T13:00:26;8.02;;;1.88;;
45728;SDS011;31439;53.512;10.206;2023-03-07T13:02:59;6.80;;;1.40;;
45728;SDS011;31439;53.512;10.206;2023-03-07T13:05:30;5.28;;;1.48;;
45728;SDS011;31439;53.512;10.206;2023-03-07T13:07:59;7.22;;;1.30;;
45728;SDS011;31439;53.512;10.206;2023-03-07T13:10:26;6.95;;;1.40;;
45728;SDS011;31439;53.512;10.206;2023-03-07T13:12:52;5.00;;;1.23;;
45728;SDS011;31439;53.512;10.206;2023-03-07T13:22:58;7.20;;;1.20;;
45728;SDS011;31439;53.512;10.206;2023-03-07T13:25:47;8.82;;;1.40;;
45728;SDS011;31439;53.512;10.206;2023-03-07T13:28:40;7.20;;;1.75;;
45728;SDS011;31439;53.512;10.206;2023-03-07T13:31:39;8.85;;;1.20;;
45728;SDS011;31439;53.512;10.206;2023-03-07T13:40:21;7.05;;;1.40;;
45728;SDS011;31439;53.512;10.206;2023-03-07T13:42:50;5.50;;;1.42;;
45728;SDS011;31439;53.512;10.206;2023-03-07T14:03:50;6.80;;;1.40;;
45728;SDS011;31439;53.512;10.206;2023-03-07T14:06:26;7.25;;;1.50;;
45728;SDS011;31439;53.512;10.206;2023-03-07T14:09:05;5.60;;;1.27;;
45728;SDS011;31439;53.512;10.206;2023-03-07T14:14:51;7.30;;;1.60;;
45728;SDS011;31439;53.512;10.206;2023-03-07T14:20:16;10.80;;;1.88;;
45728;SDS011;31439;53.512;10.206;2023-03-07T14:25:52;9.30;;;1.50;;
45728;SDS011;31439;53.512;10.206;2023-03-07T14:28:46;8.50;;;1.52;;
45728;SDS011;31439;53.512;10.206;2023-03-07T14:31:19;6.20;;;1.33;;
45728;SDS011;31439;53.512;10.206;2023-03-07T14:33:51;5.35;;;1.02;;
45728;SDS011;31439;53.512;10.206;2023-03-07T14:36:28;4.40;;;1.27;;
45728;SDS011;31439;53.512;10.206;2023-03-07T14:38:58;2.97;;;0.90;;
45728;SDS011;31439;53.512;10.206;2023-03-07T14:41:43;4.72;;;1.50;;
45728;SDS011;31439;53.512;10.206;2023-03-07T14:50:00;7.63;;;1.35;;
45728;SDS011;31439;53.512;10.206;2023-03-07T14:52:38;5.95;;;1.35;;
45728;SDS011;31439;53.512;10.206;2023-03-07T14:55:04;3.85;;;1.20;;
45728;SDS011;31439;53.512;10.206;2023-03-07T14:57:37;3.80;;;1.10;;
45728;SDS011;31439;53.512;10.206;2023-03-07T15:05:21;3.97;;;1.17;;
45728;SDS011;31439;53.512;10.206;2023-03-07T15:07:49;3.70;;;1.10;;
45728;SDS011;31439;53.512;10.206;2023-03-07T15:10:38;6.75;;;1.30;;
45728;SDS011;31439;53.512;10.206;2023-03-07T15:13:07;3.28;;;0.95;;
45728;SDS011;31439;53.512;10.206;2023-03-07T15:15:44;4.97;;;1.35;;
45728;SDS011;31439;53.512;10.206;2023-03-07T15:18:24;8.77;;;1.50;;
45728;SDS011;31439;53.512;10.206;2023-03-07T15:20:55;7.35;;;1.45;;
45728;SDS011;31439;53.512;10.206;2023-03-07T15:23:25;3.90;;;0.95;;
45728;SDS011;31439;53.512;10.206;2023-03-07T15:25:55;5.57;;;1.20;;
45728;SDS011;31439;53.512;10.206;2023-03-07T15:28:37;9.52;;;1.30;;
45728;SDS011;31439;53.512;10.206;2023-03-07T15:31:06;5.32;;;1.15;;
45728;SDS011;31439;53.512;10.206;2023-03-07T15:33:37;5.85;;;1.27;;
45728;SDS011;31439;53.512;10.206;2023-03-07T15:38:42;7.60;;;1.27;;
45728;SDS011;31439;53.512;10.206;2023-03-07T15:46:45;5.10;;;1.17;;
45728;SDS011;31439;53.512;10.206;2023-03-07T15:49:44;3.78;;;1.20;;
45728;SDS011;31439;53.512;10.206;2023-03-07T15:52:31;4.47;;;1.00;;
45728;SDS011;31439;53.512;10.206;2023-03-07T15:55:00;6.57;;;1.48;;
45728;SDS011;31439;53.512;10.206;2023-03-07T15:57:46;6.72;;;1.25;;
45728;SDS011;31439;53.512;10.206;2023-03-07T16:00:21;6.43;;;1.08;;
45728;SDS011;31439;53.512;10.206;2023-03-07T16:05:47;6.10;;;1.40;;
45728;SDS011;31439;53.512;10.206;2023-03-07T16:08:15;5.53;;;1.65;;
45728;SDS011;31439;53.512;10.206;2023-03-07T16:11:02;4.80;;;0.90;;
45728;SDS011;31439;53.512;10.206;2023-03-07T16:13:31;4.97;;;1.10;;
45728;SDS011;31439;53.512;10.206;2023-03-07T16:16:18;4.20;;;0.95;;
45728;SDS011;31439;53.512;10.206;2023-03-07T16:18:47;6.22;;;1.30;;
45728;SDS011;31439;53.512;10.206;2023-03-07T16:21:14;5.90;;;1.10;;
45728;SDS011;31439;53.512;10.206;2023-03-07T16:23:40;5.47;;;0.95;;
45728;SDS011;31439;53.512;10.206;2023-03-07T16:26:06;3.08;;;1.20;;
45728;SDS011;31439;53.512;10.206;2023-03-07T16:28:36;5.68;;;1.20;;
45728;SDS011;31439;53.512;10.206;2023-03-07T16:31:07;6.43;;;1.08;;
45728;SDS011;31439;53.512;10.206;2023-03-07T16:33:37;5.77;;;1.40;;
45728;SDS011;31439;53.512;10.206;2023-03-07T16:36:03;3.15;;;1.00;;
45728;SDS011;31439;53.512;10.206;2023-03-07T16:38:29;6.13;;;0.93;;
45728;SDS011;31439;53.512;10.206;2023-03-07T16:40:55;3.95;;;0.88;;
45728;SDS011;31439;53.512;10.206;2023-03-07T16:45:56;6.00;;;1.20;;
45728;SDS011;31439;53.512;10.206;2023-03-07T16:48:22;7.25;;;1.30;;
45728;SDS011;31439;53.512;10.206;2023-03-07T16:50:48;6.80;;;1.30;;
45728;SDS011;31439;53.512;10.206;2023-03-07T16:53:14;9.63;;;1.40;;
45728;SDS011;31439;53.512;10.206;2023-03-07T16:55:40;4.13;;;1.20;;
45728;SDS011;31439;53.512;10.206;2023-03-07T16:58:06;7.60;;;1.17;;
45728;SDS011;31439;53.512;10.206;2023-03-07T17:00:56;6.05;;;1.77;;
45728;SDS011;31439;53.512;10.206;2023-03-07T17:03:23;5.82;;;1.50;;
45728;SDS011;31439;53.512;10.206;2023-03-07T17:05:49;9.00;;;1.65;;
45728;SDS011;31439;53.512;10.206;2023-03-07T17:08:14;6.63;;;1.60;;
45728;SDS011;31439;53.512;10.206;2023-03-07T17:10:40;7.53;;;1.33;;
45728;SDS011;31439;53.512;10.206;2023-03-07T17:13:07;5.53;;;1.30;;
45728;SDS011;31439;53.512;10.206;2023-03-07T17:15:36;4.25;;;1.50;;
45728;SDS011;31439;53.512;10.206;2023-03-07T17:18:02;6.28;;;1.10;;
45728;SDS011;31439;53.512;10.206;2023-03-07T17:20:28;6.05;;;1.83;;
45728;SDS011;31439;53.512;10.206;2023-03-07T17:22:54;6.38;;;1.20;;
45728;SDS011;31439;53.512;10.206;2023-03-07T17:25:21;8.15;;;1.30;;
45728;SDS011;31439;53.512;10.206;2023-03-07T17:27:47;6.20;;;1.30;;
45728;SDS011;31439;53.512;10.206;2023-03-07T17:30:22;5.95;;;1.25;;